sensor_id;sensor_type;location;lat;lon;timestamp;temperature;humidity
30148;DHT22;16960;49.404;8.248;2023-04-28T00:00:36;21.20;37.50
30148;DHT22;16960;49.404;8.248;2023-04-28T00:03:03;21.20;37.50
30148;DHT22;16960;49.404;8.248;2023-04-28T00:05:30;21.20;37.50
30148;DHT22;16960;49.404;8.248;2023-04-28T00:07:57;21.20;37.60
30148;DHT22;16960;49.404;8.248;2023-04-28T00:10:24;21.20;37.60
30148;DHT22;16960;49.404;8.248;2023-04-28T00:12:51;21.20;37.60
30148;DHT22;16960;49.404;8.248;2023-04-28T00:15:18;21.10;37.70
30148;DHT22;16960;49.404;8.248;2023-04-28T00:17:46;21.10;37.70
30148;DHT22;16960;49.404;8.248;2023-04-28T00:20:13;21.10;37.70
30148;DHT22;16960;49.404;8.248;2023-04-28T00:22:40;21.10;37.70
30148;DHT22;16960;49.404;8.248;2023-04-28T00:25:08;21.10;37.70
30148;DHT22;16960;49.404;8.248;2023-04-28T00:27:35;21.10;37.80
30148;DHT22;16960;49.404;8.248;2023-04-28T00:30:03;21.10;37.80
30148;DHT22;16960;49.404;8.248;2023-04-28T00:32:30;21.10;37.90
30148;DHT22;16960;49.404;8.248;2023-04-28T00:34:58;21.10;37.90
30148;DHT22;16960;49.404;8.248;2023-04-28T00:37:25;21.10;37.90
30148;DHT22;16960;49.404;8.248;2023-04-28T00:39:55;21.10;37.90
30148;DHT22;16960;49.404;8.248;2023-04-28T00:42:22;21.10;37.90
30148;DHT22;16960;49.404;8.248;2023-04-28T00:44:49;21.10;37.90
30148;DHT22;16960;49.404;8.248;2023-04-28T00:47:16;21.10;38.00
30148;DHT22;16960;49.404;8.248;2023-04-28T00:49:44;21.10;37.90
30148;DHT22;16960;49.404;8.248;2023-04-28T00:52:13;21.00;37.80
30148;DHT22;16960;49.404;8.248;2023-04-28T00:54:40;21.00;37.90
30148;DHT22;16960;49.404;8.248;2023-04-28T00:57:09;21.00;37.90
30148;DHT22;16960;49.404;8.248;2023-04-28T00:59:36;21.00;37.90
30148;DHT22;16960;49.404;8.248;2023-04-28T01:02:03;21.10;37.90
30148;DHT22;16960;49.404;8.248;2023-04-28T01:04:31;21.00;37.90
30148;DHT22;16960;49.404;8.248;2023-04-28T01:06:59;21.00;37.90
30148;DHT22;16960;49.404;8.248;2023-04-28T01:09:28;21.10;38.00
30148;DHT22;16960;49.404;8.248;2023-04-28T01:11:55;21.00;37.90
30148;DHT22;16960;49.404;8.248;2023-04-28T01:14:22;21.00;38.00
30148;DHT22;16960;49.404;8.248;2023-04-28T01:16:50;21.00;38.00
30148;DHT22;16960;49.404;8.248;2023-04-28T01:19:20;21.00;37.90
30148;DHT22;16960;49.404;8.248;2023-04-28T01:21:47;21.00;38.00
30148;DHT22;16960;49.404;8.248;2023-04-28T01:24:16;21.00;38.00
30148;DHT22;16960;49.404;8.248;2023-04-28T01:26:43;21.00;38.00
30148;DHT22;16960;49.404;8.248;2023-04-28T01:29:10;20.90;38.00
30148;DHT22;16960;49.404;8.248;2023-04-28T01:31:37;21.00;38.00
30148;DHT22;16960;49.404;8.248;2023-04-28T01:34:04;20.90;38.10
30148;DHT22;16960;49.404;8.248;2023-04-28T01:36:31;20.90;38.00
30148;DHT22;16960;49.404;8.248;2023-04-28T01:38:58;20.90;38.00
30148;DHT22;16960;49.404;8.248;2023-04-28T01:41:27;20.90;38.10
30148;DHT22;16960;49.404;8.248;2023-04-28T01:43:53;20.90;38.10
30148;DHT22;16960;49.404;8.248;2023-04-28T01:46:20;20.90;38.20
30148;DHT22;16960;49.404;8.248;2023-04-28T01:48:47;20.90;38.20
30148;DHT22;16960;49.404;8.248;2023-04-28T01:51:14;20.90;38.80
30148;DHT22;16960;49.404;8.248;2023-04-28T01:53:41;20.90;38.30
30148;DHT22;16960;49.404;8.248;2023-04-28T01:56:08;20.90;38.30
30148;DHT22;16960;49.404;8.248;2023-04-28T01:58:36;20.90;38.30
30148;DHT22;16960;49.404;8.248;2023-04-28T02:01:03;20.90;38.30
30148;DHT22;16960;49.404;8.248;2023-04-28T02:03:31;20.90;38.30
30148;DHT22;16960;49.404;8.248;2023-04-28T02:05:57;20.90;38.30
30148;DHT22;16960;49.404;8.248;2023-04-28T02:08:24;20.90;38.40
30148;DHT22;16960;49.404;8.248;2023-04-28T02:10:51;20.90;38.40
30148;DHT22;16960;49.404;8.248;2023-04-28T02:13:18;20.90;38.40
30148;DHT22;16960;49.404;8.248;2023-04-28T02:15:46;20.80;38.30
30148;DHT22;16960;49.404;8.248;2023-04-28T02:18:13;20.80;38.30
30148;DHT22;16960;49.404;8.248;2023-04-28T02:20:40;20.80;38.40
30148;DHT22;16960;49.404;8.248;2023-04-28T02:23:07;20.90;38.50
30148;DHT22;16960;49.404;8.248;2023-04-28T02:25:34;20.90;38.50
30148;DHT22;16960;49.404;8.248;2023-04-28T02:28:01;20.80;38.40
30148;DHT22;16960;49.404;8.248;2023-04-28T02:30:28;20.80;38.40
30148;DHT22;16960;49.404;8.248;2023-04-28T02:32:56;20.80;38.40
30148;DHT22;16960;49.404;8.248;2023-04-28T02:35:23;20.80;38.30
30148;DHT22;16960;49.404;8.248;2023-04-28T02:37:50;20.80;38.90
30148;DHT22;16960;49.404;8.248;2023-04-28T02:40:18;20.80;38.40
30148;DHT22;16960;49.404;8.248;2023-04-28T02:42:45;20.80;38.60
30148;DHT22;16960;49.404;8.248;2023-04-28T02:45:12;20.80;38.30
30148;DHT22;16960;49.404;8.248;2023-04-28T02:47:39;20.80;38.30
30148;DHT22;16960;49.404;8.248;2023-04-28T02:50:09;20.80;38.40
30148;DHT22;16960;49.404;8.248;2023-04-28T02:52:36;20.80;38.30
30148;DHT22;16960;49.404;8.248;2023-04-28T02:55:03;20.80;38.40
30148;DHT22;16960;49.404;8.248;2023-04-28T02:57:30;20.80;38.40
30148;DHT22;16960;49.404;8.248;2023-04-28T02:59:57;20.80;38.40
30148;DHT22;16960;49.404;8.248;2023-04-28T03:02:24;20.70;38.40
30148;DHT22;16960;49.404;8.248;2023-04-28T03:04:51;20.80;38.50
30148;DHT22;16960;49.404;8.248;2023-04-28T03:07:19;20.70;38.50
30148;DHT22;16960;49.404;8.248;2023-04-28T03:09:46;20.80;38.60
30148;DHT22;16960;49.404;8.248;2023-04-28T03:12:13;20.80;38.60
30148;DHT22;16960;49.404;8.248;2023-04-28T03:14:40;20.70;38.70
30148;DHT22;16960;49.404;8.248;2023-04-28T03:17:07;20.70;38.60
30148;DHT22;16960;49.404;8.248;2023-04-28T03:19:34;20.70;38.60
30148;DHT22;16960;49.404;8.248;2023-04-28T03:22:01;20.70;38.70
30148;DHT22;16960;49.404;8.248;2023-04-28T03:24:30;20.70;38.60
30148;DHT22;16960;49.404;8.248;2023-04-28T03:26:57;20.70;38.60
30148;DHT22;16960;49.404;8.248;2023-04-28T03:29:24;20.70;38.60
30148;DHT22;16960;49.404;8.248;2023-04-28T03:31:51;20.70;38.60
30148;DHT22;16960;49.404;8.248;2023-04-28T03:34:18;20.70;38.60
30148;DHT22;16960;49.404;8.248;2023-04-28T03:36:45;20.70;38.60
30148;DHT22;16960;49.404;8.248;2023-04-28T03:39:11;20.70;38.70
30148;DHT22;16960;49.404;8.248;2023-04-28T03:41:40;20.70;38.60
30148;DHT22;16960;49.404;8.248;2023-04-28T03:44:07;20.70;38.60
30148;DHT22;16960;49.404;8.248;2023-04-28T03:46:33;20.70;38.60
30148;DHT22;16960;49.404;8.248;2023-04-28T03:49:01;20.70;38.70
30148;DHT22;16960;49.404;8.248;2023-04-28T03:51:28;20.70;38.70
30148;DHT22;16960;49.404;8.248;2023-04-28T03:53:55;20.70;38.70
30148;DHT22;16960;49.404;8.248;2023-04-28T03:56:22;20.70;38.70
30148;DHT22;16960;49.404;8.248;2023-04-28T03:58:50;20.70;38.70
30148;DHT22;16960;49.404;8.248;2023-04-28T04:01:17;20.70;38.70
30148;DHT22;16960;49.404;8.248;2023-04-28T04:03:44;20.70;38.70
30148;DHT22;16960;49.404;8.248;2023-04-28T04:06:11;20.60;38.60
30148;DHT22;16960;49.404;8.248;2023-04-28T04:08:38;20.70;38.70
30148;DHT22;16960;49.404;8.248;2023-04-28T04:11:05;20.60;38.60
30148;DHT22;16960;49.404;8.248;2023-04-28T04:13:32;20.60;38.60
30148;DHT22;16960;49.404;8.248;2023-04-28T04:16:00;20.60;38.60
30148;DHT22;16960;49.404;8.248;2023-04-28T04:18:27;20.60;38.70
30148;DHT22;16960;49.404;8.248;2023-04-28T04:20:54;20.60;38.70
30148;DHT22;16960;49.404;8.248;2023-04-28T04:23:22;20.60;38.60
30148;DHT22;16960;49.404;8.248;2023-04-28T04:25:49;20.60;38.70
30148;DHT22;16960;49.404;8.248;2023-04-28T04:28:16;20.60;38.60
30148;DHT22;16960;49.404;8.248;2023-04-28T04:30:43;20.60;38.70
30148;DHT22;16960;49.404;8.248;2023-04-28T04:33:11;20.60;38.70
30148;DHT22;16960;49.404;8.248;2023-04-28T04:35:38;20.60;38.70
30148;DHT22;16960;49.404;8.248;2023-04-28T04:38:05;20.60;38.70
30148;DHT22;16960;49.404;8.248;2023-04-28T04:40:33;20.60;38.70
30148;DHT22;16960;49.404;8.248;2023-04-28T04:43:00;20.60;38.70
30148;DHT22;16960;49.404;8.248;2023-04-28T04:45:27;20.60;38.70
30148;DHT22;16960;49.404;8.248;2023-04-28T04:47:54;20.60;38.70
30148;DHT22;16960;49.404;8.248;2023-04-28T04:50:22;20.60;38.70
30148;DHT22;16960;49.404;8.248;2023-04-28T04:52:49;20.50;38.70
30148;DHT22;16960;49.404;8.248;2023-04-28T04:55:16;20.50;38.70
30148;DHT22;16960;49.404;8.248;2023-04-28T04:57:43;20.50;38.70
30148;DHT22;16960;49.404;8.248;2023-04-28T05:00:11;20.60;38.70
30148;DHT22;16960;49.404;8.248;2023-04-28T05:02:38;20.50;38.70
30148;DHT22;16960;49.404;8.248;2023-04-28T05:05:06;20.50;38.70
30148;DHT22;16960;49.404;8.248;2023-04-28T05:07:34;20.50;38.80
30148;DHT22;16960;49.404;8.248;2023-04-28T05:10:01;20.50;38.70
30148;DHT22;16960;49.404;8.248;2023-04-28T05:12:29;20.50;38.80
30148;DHT22;16960;49.404;8.248;2023-04-28T05:14:56;20.50;38.80
30148;DHT22;16960;49.404;8.248;2023-04-28T05:17:22;20.50;38.80
30148;DHT22;16960;49.404;8.248;2023-04-28T05:19:49;20.50;38.80
30148;DHT22;16960;49.404;8.248;2023-04-28T05:22:16;20.50;38.80
30148;DHT22;16960;49.404;8.248;2023-04-28T05:24:44;20.50;38.80
30148;DHT22;16960;49.404;8.248;2023-04-28T05:27:11;20.50;38.80
30148;DHT22;16960;49.404;8.248;2023-04-28T05:29:38;20.50;38.80
30148;DHT22;16960;49.404;8.248;2023-04-28T05:32:06;20.50;38.80
30148;DHT22;16960;49.404;8.248;2023-04-28T05:34:32;20.50;38.80
30148;DHT22;16960;49.404;8.248;2023-04-28T05:37:00;20.50;38.90
30148;DHT22;16960;49.404;8.248;2023-04-28T05:39:27;20.50;39.00
30148;DHT22;16960;49.404;8.248;2023-04-28T05:41:55;20.50;38.90
30148;DHT22;16960;49.404;8.248;2023-04-28T05:44:23;20.50;39.00
30148;DHT22;16960;49.404;8.248;2023-04-28T05:46:50;20.50;39.00
30148;DHT22;16960;49.404;8.248;2023-04-28T05:49:17;20.50;39.00
30148;DHT22;16960;49.404;8.248;2023-04-28T05:51:43;20.50;39.00
30148;DHT22;16960;49.404;8.248;2023-04-28T05:54:10;20.50;39.10
30148;DHT22;16960;49.404;8.248;2023-04-28T05:56:37;20.50;39.10
30148;DHT22;16960;49.404;8.248;2023-04-28T05:59:06;20.50;39.00
30148;DHT22;16960;49.404;8.248;2023-04-28T06:01:33;20.50;39.10
30148;DHT22;16960;49.404;8.248;2023-04-28T06:04:00;20.50;39.30
30148;DHT22;16960;49.404;8.248;2023-04-28T06:06:27;20.50;39.40
30148;DHT22;16960;49.404;8.248;2023-04-28T06:08:54;20.60;39.30
30148;DHT22;16960;49.404;8.248;2023-04-28T06:11:21;20.60;39.20
30148;DHT22;16960;49.404;8.248;2023-04-28T06:13:48;20.70;39.20
30148;DHT22;16960;49.404;8.248;2023-04-28T06:16:17;20.70;39.00
30148;DHT22;16960;49.404;8.248;2023-04-28T06:18:44;20.70;38.80
30148;DHT22;16960;49.404;8.248;2023-04-28T06:21:12;20.70;38.80
30148;DHT22;16960;49.404;8.248;2023-04-28T06:23:38;20.80;38.80
30148;DHT22;16960;49.404;8.248;2023-04-28T06:26:06;20.80;38.70
30148;DHT22;16960;49.404;8.248;2023-04-28T06:28:34;20.80;38.70
30148;DHT22;16960;49.404;8.248;2023-04-28T06:31:01;20.80;38.60
30148;DHT22;16960;49.404;8.248;2023-04-28T06:33:29;20.90;38.60
30148;DHT22;16960;49.404;8.248;2023-04-28T06:35:56;20.90;38.50
30148;DHT22;16960;49.404;8.248;2023-04-28T06:38:23;20.90;38.40
30148;DHT22;16960;49.404;8.248;2023-04-28T06:40:50;20.90;38.40
30148;DHT22;16960;49.404;8.248;2023-04-28T06:43:17;21.00;38.40
30148;DHT22;16960;49.404;8.248;2023-04-28T06:45:44;21.00;38.40
30148;DHT22;16960;49.404;8.248;2023-04-28T06:48:11;21.00;38.40
30148;DHT22;16960;49.404;8.248;2023-04-28T06:50:39;21.00;38.50
30148;DHT22;16960;49.404;8.248;2023-04-28T06:53:06;21.00;38.50
30148;DHT22;16960;49.404;8.248;2023-04-28T06:55:33;21.10;38.70
30148;DHT22;16960;49.404;8.248;2023-04-28T06:58:02;21.10;38.70
30148;DHT22;16960;49.404;8.248;2023-04-28T07:00:29;21.10;38.80
30148;DHT22;16960;49.404;8.248;2023-04-28T07:02:56;21.10;38.80
30148;DHT22;16960;49.404;8.248;2023-04-28T07:05:23;21.20;38.80
30148;DHT22;16960;49.404;8.248;2023-04-28T07:07:52;21.20;38.90
30148;DHT22;16960;49.404;8.248;2023-04-28T07:10:19;21.20;38.90
30148;DHT22;16960;49.404;8.248;2023-04-28T07:12:46;21.20;39.00
30148;DHT22;16960;49.404;8.248;2023-04-28T07:15:12;21.20;39.00
30148;DHT22;16960;49.404;8.248;2023-04-28T07:17:39;21.20;38.90
30148;DHT22;16960;49.404;8.248;2023-04-28T07:20:07;21.20;39.00
30148;DHT22;16960;49.404;8.248;2023-04-28T07:22:34;21.30;39.00
30148;DHT22;16960;49.404;8.248;2023-04-28T07:25:04;21.30;39.00
30148;DHT22;16960;49.404;8.248;2023-04-28T07:27:31;21.30;39.00
30148;DHT22;16960;49.404;8.248;2023-04-28T07:29:58;21.30;38.90
30148;DHT22;16960;49.404;8.248;2023-04-28T07:32:26;21.30;39.00
30148;DHT22;16960;49.404;8.248;2023-04-28T07:34:53;21.40;39.90
30148;DHT22;16960;49.404;8.248;2023-04-28T07:37:20;21.40;39.20
30148;DHT22;16960;49.404;8.248;2023-04-28T07:39:47;21.30;39.20
30148;DHT22;16960;49.404;8.248;2023-04-28T07:42:16;21.40;39.20
30148;DHT22;16960;49.404;8.248;2023-04-28T07:44:43;21.40;39.20
30148;DHT22;16960;49.404;8.248;2023-04-28T07:47:10;21.40;39.30
30148;DHT22;16960;49.404;8.248;2023-04-28T07:49:37;21.40;39.50
30148;DHT22;16960;49.404;8.248;2023-04-28T07:52:04;21.50;39.90
30148;DHT22;16960;49.404;8.248;2023-04-28T07:54:31;21.50;39.70
30148;DHT22;16960;49.404;8.248;2023-04-28T07:56:58;21.50;39.50
30148;DHT22;16960;49.404;8.248;2023-04-28T07:59:27;21.50;39.40
30148;DHT22;16960;49.404;8.248;2023-04-28T08:01:54;21.50;39.30
30148;DHT22;16960;49.404;8.248;2023-04-28T08:04:21;21.50;39.20
30148;DHT22;16960;49.404;8.248;2023-04-28T08:06:48;21.50;39.20
30148;DHT22;16960;49.404;8.248;2023-04-28T08:09:15;21.60;39.10
30148;DHT22;16960;49.404;8.248;2023-04-28T08:11:42;21.60;39.10
30148;DHT22;16960;49.404;8.248;2023-04-28T08:14:09;21.60;39.00
30148;DHT22;16960;49.404;8.248;2023-04-28T08:16:38;21.60;39.00
30148;DHT22;16960;49.404;8.248;2023-04-28T08:19:05;21.60;38.90
30148;DHT22;16960;49.404;8.248;2023-04-28T08:21:33;21.60;38.90
30148;DHT22;16960;49.404;8.248;2023-04-28T08:24:00;21.70;38.90
30148;DHT22;16960;49.404;8.248;2023-04-28T08:26:27;21.70;38.90
30148;DHT22;16960;49.404;8.248;2023-04-28T08:28:54;21.70;38.80
30148;DHT22;16960;49.404;8.248;2023-04-28T08:31:21;21.70;38.70
30148;DHT22;16960;49.404;8.248;2023-04-28T08:33:49;21.70;38.70
30148;DHT22;16960;49.404;8.248;2023-04-28T08:36:17;21.80;38.70
30148;DHT22;16960;49.404;8.248;2023-04-28T08:38:44;21.80;38.60
30148;DHT22;16960;49.404;8.248;2023-04-28T08:41:12;21.80;38.60
30148;DHT22;16960;49.404;8.248;2023-04-28T08:43:40;21.80;38.50
30148;DHT22;16960;49.404;8.248;2023-04-28T08:46:08;21.90;38.60
30148;DHT22;16960;49.404;8.248;2023-04-28T08:48:39;21.90;38.60
30148;DHT22;16960;49.404;8.248;2023-04-28T08:51:09;21.80;38.60
30148;DHT22;16960;49.404;8.248;2023-04-28T08:53:43;21.90;38.60
30148;DHT22;16960;49.404;8.248;2023-04-28T08:56:13;21.80;39.10
30148;DHT22;16960;49.404;8.248;2023-04-28T08:58:41;21.80;38.50
30148;DHT22;16960;49.404;8.248;2023-04-28T09:01:09;21.80;38.60
30148;DHT22;16960;49.404;8.248;2023-04-28T09:03:36;21.90;38.60
30148;DHT22;16960;49.404;8.248;2023-04-28T09:06:03;21.80;38.50
30148;DHT22;16960;49.404;8.248;2023-04-28T09:08:31;21.90;38.60
30148;DHT22;16960;49.404;8.248;2023-04-28T09:11:05;21.90;38.60
30148;DHT22;16960;49.404;8.248;2023-04-28T09:13:34;21.90;38.60
30148;DHT22;16960;49.404;8.248;2023-04-28T09:16:03;21.90;38.60
30148;DHT22;16960;49.404;8.248;2023-04-28T09:18:30;21.90;38.60
30148;DHT22;16960;49.404;8.248;2023-04-28T09:21:08;21.90;38.50
30148;DHT22;16960;49.404;8.248;2023-04-28T09:23:46;21.90;38.50
30148;DHT22;16960;49.404;8.248;2023-04-28T09:26:13;22.00;38.50
30148;DHT22;16960;49.404;8.248;2023-04-28T09:28:40;22.00;38.50
30148;DHT22;16960;49.404;8.248;2023-04-28T09:31:21;22.00;38.50
30148;DHT22;16960;49.404;8.248;2023-04-28T09:33:56;22.00;38.40
30148;DHT22;16960;49.404;8.248;2023-04-28T09:36:25;22.00;38.40
30148;DHT22;16960;49.404;8.248;2023-04-28T09:38:56;22.00;38.40
30148;DHT22;16960;49.404;8.248;2023-04-28T09:41:34;22.00;38.40
30148;DHT22;16960;49.404;8.248;2023-04-28T09:44:10;22.00;38.40
30148;DHT22;16960;49.404;8.248;2023-04-28T09:46:37;22.00;38.30
30148;DHT22;16960;49.404;8.248;2023-04-28T09:49:04;22.00;38.40
30148;DHT22;16960;49.404;8.248;2023-04-28T09:51:31;22.00;38.30
30148;DHT22;16960;49.404;8.248;2023-04-28T09:54:01;22.00;38.40
30148;DHT22;16960;49.404;8.248;2023-04-28T09:56:29;22.10;38.50
30148;DHT22;16960;49.404;8.248;2023-04-28T09:58:57;22.00;38.30
30148;DHT22;16960;49.404;8.248;2023-04-28T10:01:25;22.10;38.50
30148;DHT22;16960;49.404;8.248;2023-04-28T10:03:53;22.10;39.10
30148;DHT22;16960;49.404;8.248;2023-04-28T10:06:22;22.10;38.50
30148;DHT22;16960;49.404;8.248;2023-04-28T10:08:50;22.00;38.40
30148;DHT22;16960;49.404;8.248;2023-04-28T10:11:18;22.00;38.40
30148;DHT22;16960;49.404;8.248;2023-04-28T10:13:48;22.10;38.50
30148;DHT22;16960;49.404;8.248;2023-04-28T10:16:15;22.00;38.40
30148;DHT22;16960;49.404;8.248;2023-04-28T10:18:44;22.00;38.40
30148;DHT22;16960;49.404;8.248;2023-04-28T10:21:13;22.00;38.40
30148;DHT22;16960;49.404;8.248;2023-04-28T10:24:09;22.00;38.40
30148;DHT22;16960;49.404;8.248;2023-04-28T10:27:06;22.00;38.40
30148;DHT22;16960;49.404;8.248;2023-04-28T10:29:34;22.00;38.40
30148;DHT22;16960;49.404;8.248;2023-04-28T10:32:15;22.00;38.40
30148;DHT22;16960;49.404;8.248;2023-04-28T10:34:42;22.00;38.40
30148;DHT22;16960;49.404;8.248;2023-04-28T10:37:10;22.00;38.40
30148;DHT22;16960;49.404;8.248;2023-04-28T10:39:39;22.00;38.40
30148;DHT22;16960;49.404;8.248;2023-04-28T10:45:09;22.00;38.30
30148;DHT22;16960;49.404;8.248;2023-04-28T10:48:00;22.00;38.30
30148;DHT22;16960;49.404;8.248;2023-04-28T10:50:30;22.00;38.30
30148;DHT22;16960;49.404;8.248;2023-04-28T10:52:58;22.00;38.30
30148;DHT22;16960;49.404;8.248;2023-04-28T10:55:32;22.00;38.20
30148;DHT22;16960;49.404;8.248;2023-04-28T10:58:32;22.00;38.20
30148;DHT22;16960;49.404;8.248;2023-04-28T11:01:25;22.10;38.30
30148;DHT22;16960;49.404;8.248;2023-04-28T11:03:53;22.00;38.20
30148;DHT22;16960;49.404;8.248;2023-04-28T11:06:25;22.10;38.30
30148;DHT22;16960;49.404;8.248;2023-04-28T11:08:53;22.10;38.30
30148;DHT22;16960;49.404;8.248;2023-04-28T11:11:23;22.10;38.30
30148;DHT22;16960;49.404;8.248;2023-04-28T11:13:51;22.10;38.30
30148;DHT22;16960;49.404;8.248;2023-04-28T11:16:22;22.10;38.30
30148;DHT22;16960;49.404;8.248;2023-04-28T11:18:55;22.10;38.30
30148;DHT22;16960;49.404;8.248;2023-04-28T11:21:24;22.10;38.30
30148;DHT22;16960;49.404;8.248;2023-04-28T11:23:53;22.20;38.40
30148;DHT22;16960;49.404;8.248;2023-04-28T11:26:20;22.20;38.40
30148;DHT22;16960;49.404;8.248;2023-04-28T11:28:52;22.10;38.50
30148;DHT22;16960;49.404;8.248;2023-04-28T11:31:20;22.20;38.50
30148;DHT22;16960;49.404;8.248;2023-04-28T11:33:56;22.20;38.50
30148;DHT22;16960;49.404;8.248;2023-04-28T11:36:25;22.20;38.50
30148;DHT22;16960;49.404;8.248;2023-04-28T11:38:53;22.20;38.50
30148;DHT22;16960;49.404;8.248;2023-04-28T11:41:21;22.20;38.40
30148;DHT22;16960;49.404;8.248;2023-04-28T11:43:48;22.30;38.50
30148;DHT22;16960;49.404;8.248;2023-04-28T11:46:16;22.30;38.50
30148;DHT22;16960;49.404;8.248;2023-04-28T11:48:44;22.20;38.40
30148;DHT22;16960;49.404;8.248;2023-04-28T11:51:28;22.20;38.40
30148;DHT22;16960;49.404;8.248;2023-04-28T11:53:55;22.30;38.40
30148;DHT22;16960;49.404;8.248;2023-04-28T11:56:22;22.30;38.40
30148;DHT22;16960;49.404;8.248;2023-04-28T11:59:02;22.30;38.40
30148;DHT22;16960;49.404;8.248;2023-04-28T12:01:31;22.40;38.40
30148;DHT22;16960;49.404;8.248;2023-04-28T12:03:58;22.40;38.40
30148;DHT22;16960;49.404;8.248;2023-04-28T12:06:25;22.30;38.40
30148;DHT22;16960;49.404;8.248;2023-04-28T12:08:55;22.40;38.40
30148;DHT22;16960;49.404;8.248;2023-04-28T12:11:27;22.40;38.40
30148;DHT22;16960;49.404;8.248;2023-04-28T12:14:06;22.40;38.30
30148;DHT22;16960;49.404;8.248;2023-04-28T12:16:39;22.40;38.30
30148;DHT22;16960;49.404;8.248;2023-04-28T12:19:09;22.40;38.30
30148;DHT22;16960;49.404;8.248;2023-04-28T12:21:37;22.40;38.30
30148;DHT22;16960;49.404;8.248;2023-04-28T12:24:17;22.40;38.30
30148;DHT22;16960;49.404;8.248;2023-04-28T12:26:44;22.40;38.20
30148;DHT22;16960;49.404;8.248;2023-04-28T12:29:35;22.40;38.20
30148;DHT22;16960;49.404;8.248;2023-04-28T12:32:05;22.50;38.30
30148;DHT22;16960;49.404;8.248;2023-04-28T12:34:32;22.50;38.30
30148;DHT22;16960;49.404;8.248;2023-04-28T12:37:00;22.50;38.30
30148;DHT22;16960;49.404;8.248;2023-04-28T12:39:29;22.50;38.20
30148;DHT22;16960;49.404;8.248;2023-04-28T12:41:56;22.50;38.20
30148;DHT22;16960;49.404;8.248;2023-04-28T12:44:24;22.50;38.20
30148;DHT22;16960;49.404;8.248;2023-04-28T12:46:52;22.50;38.20
30148;DHT22;16960;49.404;8.248;2023-04-28T12:49:20;22.50;38.20
30148;DHT22;16960;49.404;8.248;2023-04-28T12:51:47;22.50;38.20
30148;DHT22;16960;49.404;8.248;2023-04-28T12:54:14;22.50;38.10
30148;DHT22;16960;49.404;8.248;2023-04-28T12:56:43;22.60;38.10
30148;DHT22;16960;49.404;8.248;2023-04-28T12:59:10;22.60;38.10
30148;DHT22;16960;49.404;8.248;2023-04-28T13:01:37;22.60;38.20
30148;DHT22;16960;49.404;8.248;2023-04-28T13:04:04;22.60;38.20
30148;DHT22;16960;49.404;8.248;2023-04-28T13:06:32;22.60;38.40
30148;DHT22;16960;49.404;8.248;2023-04-28T13:09:00;22.70;38.90
30148;DHT22;16960;49.404;8.248;2023-04-28T13:11:28;22.70;38.70
30148;DHT22;16960;49.404;8.248;2023-04-28T13:13:57;22.70;38.60
30148;DHT22;16960;49.404;8.248;2023-04-28T13:16:25;22.70;39.00
30148;DHT22;16960;49.404;8.248;2023-04-28T13:18:55;22.70;38.80
30148;DHT22;16960;49.404;8.248;2023-04-28T13:21:22;22.70;38.80
30148;DHT22;16960;49.404;8.248;2023-04-28T13:23:51;22.70;39.50
30148;DHT22;16960;49.404;8.248;2023-04-28T13:26:18;22.70;40.30
30148;DHT22;16960;49.404;8.248;2023-04-28T13:28:45;22.70;40.10
30148;DHT22;16960;49.404;8.248;2023-04-28T13:31:14;22.70;39.70
30148;DHT22;16960;49.404;8.248;2023-04-28T13:33:41;22.70;39.30
30148;DHT22;16960;49.404;8.248;2023-04-28T13:36:08;22.70;39.20
30148;DHT22;16960;49.404;8.248;2023-04-28T13:38:35;22.80;39.10
30148;DHT22;16960;49.404;8.248;2023-04-28T13:41:02;22.80;39.30
30148;DHT22;16960;49.404;8.248;2023-04-28T13:43:29;22.80;39.50
30148;DHT22;16960;49.404;8.248;2023-04-28T13:45:56;22.70;39.30
30148;DHT22;16960;49.404;8.248;2023-04-28T13:48:25;22.80;39.30
30148;DHT22;16960;49.404;8.248;2023-04-28T13:50:52;22.80;39.20
30148;DHT22;16960;49.404;8.248;2023-04-28T13:53:20;22.80;39.30
30148;DHT22;16960;49.404;8.248;2023-04-28T13:55:49;22.80;39.30
30148;DHT22;16960;49.404;8.248;2023-04-28T13:58:18;22.70;39.70
30148;DHT22;16960;49.404;8.248;2023-04-28T14:00:45;22.70;40.50
30148;DHT22;16960;49.404;8.248;2023-04-28T14:03:12;22.70;40.50
30148;DHT22;16960;49.404;8.248;2023-04-28T14:05:41;22.70;40.30
30148;DHT22;16960;49.404;8.248;2023-04-28T14:08:08;22.70;40.30
30148;DHT22;16960;49.404;8.248;2023-04-28T14:10:36;22.70;40.10
30148;DHT22;16960;49.404;8.248;2023-04-28T14:13:02;22.60;39.90
30148;DHT22;16960;49.404;8.248;2023-04-28T14:15:30;22.60;40.10
30148;DHT22;16960;49.404;8.248;2023-04-28T14:17:57;22.60;41.00
30148;DHT22;16960;49.404;8.248;2023-04-28T14:20:24;22.60;41.90
30148;DHT22;16960;49.404;8.248;2023-04-28T14:22:52;22.50;42.20
30148;DHT22;16960;49.404;8.248;2023-04-28T14:25:19;22.50;42.30
30148;DHT22;16960;49.404;8.248;2023-04-28T14:30:14;22.50;42.30
30148;DHT22;16960;49.404;8.248;2023-04-28T14:32:41;22.40;42.20
30148;DHT22;16960;49.404;8.248;2023-04-28T14:35:09;22.40;41.70
30148;DHT22;16960;49.404;8.248;2023-04-28T14:37:36;22.40;41.30
30148;DHT22;16960;49.404;8.248;2023-04-28T14:40:06;22.40;41.50
30148;DHT22;16960;49.404;8.248;2023-04-28T14:42:34;22.40;42.20
30148;DHT22;16960;49.404;8.248;2023-04-28T14:45:02;22.40;46.80
30148;DHT22;16960;49.404;8.248;2023-04-28T14:47:29;22.40;45.10
30148;DHT22;16960;49.404;8.248;2023-04-28T14:49:56;22.30;43.50
30148;DHT22;16960;49.404;8.248;2023-04-28T14:52:24;22.30;43.40
30148;DHT22;16960;49.404;8.248;2023-04-28T14:54:54;22.30;43.10
30148;DHT22;16960;49.404;8.248;2023-04-28T14:57:23;22.30;43.00
30148;DHT22;16960;49.404;8.248;2023-04-28T14:59:50;22.30;43.00
30148;DHT22;16960;49.404;8.248;2023-04-28T15:02:18;22.20;42.90
30148;DHT22;16960;49.404;8.248;2023-04-28T15:04:50;22.20;43.20
30148;DHT22;16960;49.404;8.248;2023-04-28T15:07:17;22.20;43.40
30148;DHT22;16960;49.404;8.248;2023-04-28T15:09:45;22.20;43.80
30148;DHT22;16960;49.404;8.248;2023-04-28T15:12:12;22.20;43.80
30148;DHT22;16960;49.404;8.248;2023-04-28T15:14:40;22.20;43.80
30148;DHT22;16960;49.404;8.248;2023-04-28T15:17:07;22.20;47.50
30148;DHT22;16960;49.404;8.248;2023-04-28T15:19:34;22.10;47.00
30148;DHT22;16960;49.404;8.248;2023-04-28T15:22:01;22.20;45.40
30148;DHT22;16960;49.404;8.248;2023-04-28T15:24:31;22.20;46.60
30148;DHT22;16960;49.404;8.248;2023-04-28T15:26:58;22.20;44.80
30148;DHT22;16960;49.404;8.248;2023-04-28T15:29:25;22.20;43.70
30148;DHT22;16960;49.404;8.248;2023-04-28T15:31:53;22.30;43.30
30148;DHT22;16960;49.404;8.248;2023-04-28T15:34:21;22.40;43.00
30148;DHT22;16960;49.404;8.248;2023-04-28T15:36:49;22.40;42.80
30148;DHT22;16960;49.404;8.248;2023-04-28T15:39:17;22.40;42.70
30148;DHT22;16960;49.404;8.248;2023-04-28T15:41:44;22.50;42.90